Time;durP1;ratioP1;P1;durP2;ratioP2;P2;SDS_P1;SDS_P2;PMS_P1;PMS_P2;Temp;Humidity;BMP_temperature;BMP_pressure;BME280_temperature;BME280_humidity;BME280_pressure;Samples;Min_cycle;Max_cycle;Signal;HPM_P1;HPM_P2
2023/03/19 00:01:05;;;;;;;47.15;22.30;;;;;;;4.58;41.61;98602.34;4972012;28;20714;-74
2023/03/19 00:03:30;;;;;;;41.20;20.48;;;;;;;4.56;42.14;98599.06;4974948;28;20023;-74
2023/03/19 00:05:56;;;;;;;42.80;20.70;;;;;;;4.56;41.35;98609.94;4972690;28;20105;-74
2023/03/19 00:08:21;;;;;;;37.47;18.05;;;;;;;4.54;42.01;98606.66;4971728;28;20116;-73
2023/03/19 00:10:47;;;;;;;37.42;17.83;;;;;;;4.54;41.43;98605.84;4971940;28;20034;-73
2023/03/19 00:13:13;;;;;;;36.55;17.23;;;;;;;4.55;41.39;98608.28;4971657;28;20510;-73
2023/03/19 00:15:38;;;;;;;40.00;17.58;;;;;;;4.58;41.55;98609.69;4972758;28;20684;-73
2023/03/19 00:18:05;;;;;;;36.83;17.00;;;;;;;4.57;41.47;98600.72;4971468;28;20054;-73
2023/03/19 00:20:31;;;;;;;38.53;17.40;;;;;;;4.60;41.83;98604.84;4972703;28;20046;-72
2023/03/19 00:22:56;;;;;;;37.83;17.30;;;;;;;4.59;41.72;98600.47;4972086;28;20031;-73
2023/03/19 00:25:22;;;;;;;35.38;16.95;;;;;;;4.61;41.93;98603.75;4983394;28;20031;-73
2023/03/19 00:27:47;;;;;;;38.38;17.02;;;;;;;4.62;42.11;98600.78;4972621;28;20369;-72
2023/03/19 00:30:13;;;;;;;38.72;17.63;;;;;;;4.61;42.16;98596.41;4971712;28;20098;-73
2023/03/19 00:32:39;;;;;;;39.15;17.58;;;;;;;4.59;41.51;98595.84;4972011;28;20023;-72
2023/03/19 00:35:06;;;;;;;37.72;17.90;;;;;;;4.58;42.09;98591.50;4980272;28;20025;-72
2023/03/19 00:37:32;;;;;;;39.10;17.95;;;;;;;4.56;42.01;98595.53;4972095;28;20764;-72
2023/03/19 00:39:58;;;;;;;39.65;17.63;;;;;;;4.53;42.03;98594.13;4971808;28;20033;-72
2023/03/19 00:42:23;;;;;;;44.30;18.40;;;;;;;4.49;41.98;98590.28;4972222;28;20023;-72
2023/03/19 00:44:49;;;;;;;45.42;20.17;;;;;;;4.46;42.32;98583.47;4970991;28;20033;-73
2023/03/19 00:47:15;;;;;;;46.70;21.27;;;;;;;4.42;41.62;98595.91;4971670;28;20025;-73
2023/03/19 00:49:40;;;;;;;45.63;20.95;;;;;;;4.40;41.78;98592.63;4971340;28;20030;-72
2023/03/19 00:52:06;;;;;;;41.58;20.08;;;;;;;4.36;41.90;98588.78;4971456;28;20502;-72
2023/03/19 00:54:31;;;;;;;44.60;21.50;;;;;;;4.34;42.27;98584.69;4970955;28;20022;-73
2023/03/19 00:56:57;;;;;;;50.50;22.38;;;;;;;4.31;42.65;98597.69;4971607;28;20034;-72
2023/03/19 00:59:24;;;;;;;46.13;21.33;;;;;;;4.27;41.97;98593.84;4971286;28;20030;-73
2023/03/19 01:01:50;;;;;;;52.45;21.55;;;;;;;4.25;42.06;98597.88;4971367;28;20109;-72
2023/03/19 01:04:16;;;;;;;47.67;21.50;;;;;;;4.21;42.53;98592.13;4970995;28;20069;-73
2023/03/19 01:06:42;;;;;;;49.40;21.27;;;;;;;4.20;42.59;98595.09;4971598;28;20027;-73
2023/03/19 01:09:08;;;;;;;44.78;21.60;;;;;;;4.19;42.77;98596.97;4953801;28;20420;-72
2023/03/19 01:11:34;;;;;;;42.92;20.88;;;;;;;4.17;42.87;98590.97;4970815;28;20122;-73
2023/03/19 01:14:00;;;;;;;43.78;19.95;;;;;;;4.16;42.67;98589.34;4970986;28;20041;-72
2023/03/19 01:16:26;;;;;;;41.40;19.80;;;;;;;4.15;43.20;98598.53;4971510;28;20031;-72
2023/03/19 01:18:52;;;;;;;40.40;19.27;;;;;;;4.12;43.15;98591.75;4971208;28;20027;-72
2023/03/19 01:21:18;;;;;;;46.13;19.63;;;;;;;4.10;43.24;98588.44;4971014;28;20049;-72
2023/03/19 01:23:43;;;;;;;41.40;19.17;;;;;;;4.10;42.46;98582.19;4971953;28;20105;-72
2023/03/19 01:26:09;;;;;;;40.50;19.83;;;;;;;4.08;43.09;98592.47;4970218;28;20046;-72
2023/03/19 01:28:34;;;;;;;41.33;19.52;;;;;;;4.06;43.55;98583.78;4971122;28;20023;-73
2023/03/19 01:31:01;;;;;;;40.47;19.27;;;;;;;4.02;42.73;98595.13;4970674;28;20039;-72
2023/03/19 01:33:27;;;;;;;38.30;18.92;;;;;;;4.01;43.31;98595.38;4970962;28;20092;-73
2023/03/19 01:35:52;;;;;;;39.33;17.70;;;;;;;4.00;43.61;98589.13;4971034;28;20450;-72
2023/03/19 01:38:18;;;;;;;36.70;17.25;;;;;;;4.00;43.71;98589.13;4971191;28;20049;-73
2023/03/19 01:40:47;;;;;;;33.05;17.30;;;;;;;4.00;43.33;98582.88;4971484;28;20026;-72
2023/03/19 01:43:22;;;;;;;34.60;16.27;;;;;;;3.99;43.52;98578.53;4968767;28;20026;-72
2023/03/19 01:46:30;;;;;;;31.42;16.70;;;;;;;3.99;43.31;98581.22;4968542;28;20475;-72
2023/03/19 01:48:59;;;;;;;34.75;16.80;;;;;;;3.99;43.44;98584.78;4956273;28;20039;-72
2023/03/19 01:51:28;;;;;;;36.22;17.92;;;;;;;4.01;43.44;98587.22;4970793;28;20035;-72
2023/03/19 01:54:04;;;;;;;38.28;18.17;;;;;;;4.00;43.44;98581.00;4971255;28;20031;-72
2023/03/19 01:56:36;;;;;;;36.45;16.45;;;;;;;3.99;43.75;98575.81;4971228;28;20031;-73
2023/03/19 01:59:10;;;;;;;34.92;15.68;;;;;;;3.98;43.85;98568.72;4971689;28;20375;-72
2023/03/19 02:01:50;;;;;;;28.30;14.82;;;;;;;3.97;43.90;98584.22;4971018;28;20497;-72
2023/03/19 02:04:17;;;;;;;29.10;14.38;;;;;;;3.98;44.24;98585.00;4970662;28;20023;-72
2023/03/19 02:06:43;;;;;;;26.95;12.95;;;;;;;3.99;43.93;98586.66;4971281;28;20041;-72
2023/03/19 02:09:09;;;;;;;31.02;14.55;;;;;;;3.99;43.81;98589.38;4971468;28;20088;-73
2023/03/19 02:11:36;;;;;;;29.15;13.20;;;;;;;3.98;44.42;98590.44;4971072;28;20538;-72
2023/03/19 02:14:02;;;;;;;26.75;13.98;;;;;;;3.99;44.51;98595.63;4971086;28;20534;-72
2023/03/19 02:16:27;;;;;;;28.67;12.48;;;;;;;3.99;44.50;98592.91;4970571;28;20031;-72
2023/03/19 02:18:54;;;;;;;25.00;12.45;;;;;;;3.99;44.98;98592.91;4971339;28;20121;-72
2023/03/19 02:21:20;;;;;;;25.00;11.63;;;;;;;4.00;44.11;98593.72;4974126;28;20034;-72
2023/03/19 02:24:06;;;;;;;27.65;12.43;;;;;;;4.00;44.92;98602.72;4973367;28;20023;-73
2023/03/19 02:26:33;;;;;;;21.77;10.88;;;;;;;4.03;44.85;98595.94;4973980;28;20053;-72
2023/03/19 02:28:58;;;;;;;21.15;10.93;;;;;;;4.04;44.74;98603.03;4974693;28;20030;-73
2023/03/19 02:31:24;;;;;;;22.63;11.85;;;;;;;4.05;44.87;98601.13;4973584;28;20429;-73
2023/03/19 02:33:57;;;;;;;21.10;11.00;;;;;;;4.06;44.62;98602.78;4974459;28;20033;-72
2023/03/19 02:36:22;;;;;;;21.17;10.57;;;;;;;4.06;45.30;98600.06;4974401;28;20518;-73
2023/03/19 02:38:49;;;;;;;24.17;11.40;;;;;;;4.06;45.17;98603.59;4974823;28;20019;-72
2023/03/19 02:41:15;;;;;;;20.60;9.95;;;;;;;4.06;45.14;98600.88;4974838;28;20484;-72
2023/03/19 02:43:41;;;;;;;22.52;10.65;;;;;;;4.08;45.20;98600.63;4979041;28;20030;-72
2023/03/19 02:46:11;;;;;;;20.38;10.68;;;;;;;4.08;45.61;98603.31;4974611;28;20031;-73
2023/03/19 02:48:37;;;;;;;21.25;10.93;;;;;;;4.07;45.37;98604.44;4974759;28;20095;-73
2023/03/19 02:51:04;;;;;;;22.55;10.23;;;;;;;4.09;45.70;98600.38;4974186;28;20026;-73
2023/03/19 02:53:30;;;;;;;21.92;11.50;;;;;;;4.09;45.13;98602.25;4971541;28;20472;-72
2023/03/19 02:55:55;;;;;;;23.17;10.40;;;;;;;4.06;45.55;98609.03;4974424;28;20034;-73
2023/03/19 02:58:21;;;;;;;20.65;10.68;;;;;;;4.08;46.26;98612.31;4974600;28;20019;-73
2023/03/19 03:00:46;;;;;;;39.42;16.85;;;;;;;4.06;46.24;98606.31;4973760;28;20484;-72
2023/03/19 03:03:12;;;;;;;33.88;13.95;;;;;;;4.04;45.62;98611.16;4974701;28;20054;-73
2023/03/19 03:05:37;;;;;;;26.75;12.55;;;;;;;4.05;46.30;98615.53;4973965;28;20137;-73
2023/03/19 03:08:04;;;;;;;20.52;10.68;;;;;;;4.06;45.64;98616.34;4974569;28;20059;-73
2023/03/19 03:10:30;;;;;;;22.77;10.85;;;;;;;4.07;46.74;98612.56;4974426;28;20459;-73
2023/03/19 03:12:56;;;;;;;21.13;9.95;;;;;;;4.07;45.90;98605.22;4973763;28;20745;-72
2023/03/19 03:15:21;;;;;;;18.77;9.63;;;;;;;4.10;46.27;98607.44;4973719;28;20023;-73
2023/03/19 03:17:47;;;;;;;18.73;9.18;;;;;;;4.14;46.33;98605.03;4974023;28;20022;-72
2023/03/19 03:20:16;;;;;;;18.55;9.40;;;;;;;4.19;46.70;98604.31;4974505;28;20486;-73
2023/03/19 03:22:43;;;;;;;16.35;9.10;;;;;;;4.23;46.82;98598.13;4973980;28;20023;-72
2023/03/19 03:25:09;;;;;;;18.88;9.40;;;;;;;4.26;46.56;98600.34;4973185;28;20065;-72
2023/03/19 03:27:35;;;;;;;19.50;9.82;;;;;;;4.29;46.32;98599.84;4972717;28;20046;-72
2023/03/19 03:30:01;;;;;;;20.15;10.50;;;;;;;4.32;46.54;98602.03;4973878;28;20027;-72
2023/03/19 03:32:26;;;;;;;20.42;10.90;;;;;;;4.32;46.59;98606.66;4972650;28;20506;-72
2023/03/19 03:34:52;;;;;;;19.35;11.52;;;;;;;4.31;46.78;98596.84;4973796;28;20019;-72
2023/03/19 03:37:18;;;;;;;20.55;11.27;;;;;;;4.28;46.88;98600.91;4973845;28;20030;-72
2023/03/19 03:39:43;;;;;;;20.20;11.10;;;;;;;4.25;46.36;98597.88;4973918;28;20023;-72
2023/03/19 03:42:09;;;;;;;22.17;11.90;;;;;;;4.21;46.96;98604.88;4974043;28;20114;-72
2023/03/19 03:44:35;;;;;;;22.50;11.23;;;;;;;4.14;47.10;98596.91;4972941;28;20018;-72
2023/03/19 03:47:00;;;;;;;21.85;11.70;;;;;;;4.10;47.06;98602.03;4973569;28;20022;-72
2023/03/19 03:49:27;;;;;;;21.75;11.32;;;;;;;4.05;47.15;98607.38;4979061;28;20030;-72
2023/03/19 03:51:52;;;;;;;22.80;12.48;;;;;;;4.00;46.72;98602.72;4969697;28;20014;-71
2023/03/19 03:54:18;;;;;;;22.70;13.63;;;;;;;3.96;47.49;98606.16;4973345;28;20468;-71
2023/03/19 03:56:43;;;;;;;32.17;17.85;;;;;;;3.92;47.53;98602.28;4973525;28;20072;-70
2023/03/19 03:59:09;;;;;;;34.30;18.77;;;;;;;3.86;47.39;98604.94;4973768;28;20054;-71
2023/03/19 04:01:35;;;;;;;37.35;19.42;;;;;;;3.76;47.26;98602.06;4971871;28;20066;-71
2023/03/19 04:04:00;;;;;;;35.88;19.48;;;;;;;3.70;46.94;98603.06;4973123;28;20499;-71
2023/03/19 04:06:26;;;;;;;34.47;19.02;;;;;;;3.64;47.51;98604.06;4973722;28;20033;-71
2023/03/19 04:08:52;;;;;;;31.30;17.02;;;;;;;3.56;47.96;98608.81;4973289;28;20031;-71
2023/03/19 04:11:18;;;;;;;30.08;16.73;;;;;;;3.49;48.02;98608.16;4973168;28;20498;-71
2023/03/19 04:13:43;;;;;;;31.35;15.55;;;;;;;3.46;47.65;98614.09;4972966;28;20030;-70
2023/03/19 04:16:09;;;;;;;28.60;14.88;;;;;;;3.43;47.69;98609.16;4973343;28;20030;-71
2023/03/19 04:18:36;;;;;;;20.33;11.98;;;;;;;3.38;48.09;98611.78;4973252;28;20027;-72
2023/03/19 04:21:03;;;;;;;24.80;13.43;;;;;;;3.36;48.34;98609.28;4972965;28;20694;-71
2023/03/19 04:23:28;;;;;;;20.35;11.45;;;;;;;3.34;47.93;98603.28;4972613;28;20702;-71
2023/03/19 04:26:02;;;;;;;22.90;11.45;;;;;;;3.31;48.84;98600.25;4972065;28;20130;-72
2023/03/19 04:28:28;;;;;;;21.73;11.75;;;;;;;3.29;48.26;98608.63;4972343;28;20545;-72
2023/03/19 04:31:01;;;;;;;18.20;10.73;;;;;;;3.26;48.41;98601.81;4982244;28;20027;-71
2023/03/19 04:33:28;;;;;;;19.70;11.13;;;;;;;3.25;48.57;98602.88;4972200;28;20029;-72
2023/03/19 04:35:54;;;;;;;21.98;12.15;;;;;;;3.24;49.16;98595.00;4974085;28;20027;-71
2023/03/19 04:38:20;;;;;;;20.08;11.82;;;;;;;3.24;48.90;98595.00;4971764;28;20142;-71
2023/03/19 04:40:47;;;;;;;22.95;12.30;;;;;;;3.21;49.39;98596.31;4972216;28;20030;-71
2023/03/19 04:43:13;;;;;;;23.63;12.55;;;;;;;3.19;49.38;98603.84;4970397;28;20026;-71
2023/03/19 04:45:38;;;;;;;25.10;13.25;;;;;;;3.16;49.29;98598.13;4971152;28;20372;-71
2023/03/19 04:48:05;;;;;;;24.23;13.77;;;;;;;3.13;49.53;98594.00;4971896;28;20027;-72
2023/03/19 04:50:31;;;;;;;24.35;13.77;;;;;;;3.11;49.27;98590.69;4974125;28;20040;-72
2023/03/19 04:52:56;;;;;;;26.88;14.57;;;;;;;3.08;49.74;98599.31;4971919;28;20035;-71
2023/03/19 04:55:22;;;;;;;28.92;15.10;;;;;;;3.07;49.36;98594.97;4971493;28;20106;-72
2023/03/19 04:57:47;;;;;;;26.90;14.88;;;;;;;3.05;49.22;98597.13;4972025;28;20026;-72
2023/03/19 05:00:15;;;;;;;32.25;16.23;;;;;;;3.04;49.91;98590.88;4971860;28;20042;-71
2023/03/19 05:02:41;;;;;;;31.85;16.70;;;;;;;3.07;49.46;98592.25;4971409;28;20062;-72
2023/03/19 05:05:09;;;;;;;31.98;17.38;;;;;;;3.08;50.17;98597.44;4970829;28;20041;-72
2023/03/19 05:07:35;;;;;;;31.20;15.55;;;;;;;3.11;50.24;98590.69;4971086;28;20407;-72
2023/03/19 05:10:01;;;;;;;30.00;16.20;;;;;;;3.14;50.64;98603.75;4972551;28;20038;-72
2023/03/19 05:12:27;;;;;;;29.70;15.45;;;;;;;3.18;50.20;98596.78;4970158;28;20031;-71
2023/03/19 05:14:53;;;;;;;27.10;14.30;;;;;;;3.22;50.90;98594.44;4970224;28;20062;-72
2023/03/19 05:17:19;;;;;;;24.38;13.20;;;;;;;3.26;50.38;98596.41;4971407;28;20018;-71
2023/03/19 05:19:44;;;;;;;26.80;14.68;;;;;;;3.30;51.13;98599.44;4971111;28;20041;-72
2023/03/19 05:22:11;;;;;;;27.60;15.10;;;;;;;3.33;50.73;98596.22;4971389;28;20054;-73
2023/03/19 05:24:37;;;;;;;30.25;16.13;;;;;;;3.36;50.31;98597.66;4970678;28;20019;-72
2023/03/19 05:27:03;;;;;;;31.10;16.40;;;;;;;3.39;51.00;98602.56;4971341;28;20571;-72
2023/03/19 05:29:28;;;;;;;26.05;14.95;;;;;;;3.39;51.26;98602.56;4971201;28;20023;-72
2023/03/19 05:31:53;;;;;;;28.27;15.18;;;;;;;3.40;51.11;98606.94;4970873;28;20041;-72
2023/03/19 05:34:19;;;;;;;30.38;17.88;;;;;;;3.40;50.98;98609.66;4969607;28;20015;-73
2023/03/19 05:36:45;;;;;;;40.20;19.48;;;;;;;3.39;51.18;98610.72;4970586;28;20488;-72
2023/03/19 05:39:10;;;;;;;47.08;23.85;;;;;;;3.36;50.92;98617.44;4971019;28;20049;-72
2023/03/19 05:41:36;;;;;;;43.05;23.17;;;;;;;3.31;51.11;98622.75;4971222;28;20117;-72
2023/03/19 05:44:01;;;;;;;42.40;24.38;;;;;;;3.31;50.95;98611.09;4970816;28;20030;-72
2023/03/19 05:46:27;;;;;;;47.30;23.95;;;;;;;3.30;50.60;98617.59;4970872;28;20027;-72
2023/03/19 05:48:52;;;;;;;47.92;25.73;;;;;;;3.27;50.66;98616.19;4971012;28;20062;-72
2023/03/19 05:51:17;;;;;;;48.60;25.08;;;;;;;3.25;51.29;98621.88;4969771;28;20074;-72
2023/03/19 05:53:43;;;;;;;54.05;26.25;;;;;;;3.25;51.74;98621.88;4970802;28;20019;-72
2023/03/19 05:56:08;;;;;;;60.20;28.38;;;;;;;3.27;51.10;98617.03;4970484;28;20450;-72
2023/03/19 05:58:34;;;;;;;54.58;27.30;;;;;;;3.32;51.47;98623.59;4971180;28;20771;-73
2023/03/19 06:01:00;;;;;;;51.08;25.40;;;;;;;3.36;51.54;98628.28;4970134;28;20593;-72
2023/03/19 06:03:26;;;;;;;53.97;25.95;;;;;;;3.42;51.66;98624.59;4970873;28;20246;-72
2023/03/19 06:05:52;;;;;;;52.85;25.27;;;;;;;3.50;52.17;98614.41;4970899;28;20033;-72
2023/03/19 06:08:18;;;;;;;62.10;29.70;;;;;;;3.58;51.80;98631.09;4968112;28;20066;-72
2023/03/19 06:10:44;;;;;;;69.35;31.92;;;;;;;3.64;52.20;98621.16;4970791;28;20027;-72
2023/03/19 06:13:10;;;;;;;69.07;31.67;;;;;;;3.71;51.54;98623.69;4970688;28;20080;-72
2023/03/19 06:15:36;;;;;;;63.63;30.20;;;;;;;3.79;52.00;98627.88;4970075;28;20062;-72
2023/03/19 06:18:01;;;;;;;69.72;30.25;;;;;;;3.88;52.64;98626.41;4970955;28;20085;-73
2023/03/19 06:20:27;;;;;;;63.58;28.10;;;;;;;3.97;52.52;98621.38;4970757;28;20041;-73
2023/03/19 06:22:52;;;;;;;58.42;27.98;;;;;;;4.07;52.61;98621.53;4970817;28;20019;-72
2023/03/19 06:25:18;;;;;;;50.88;24.98;;;;;;;4.19;52.82;98634.97;4970349;28;20082;-73
2023/03/19 06:27:43;;;;;;;43.83;21.17;;;;;;;4.32;52.23;98629.19;4973493;28;20089;-72
2023/03/19 06:30:11;;;;;;;44.22;19.20;;;;;;;4.49;53.24;98627.50;4974056;28;20118;-73
2023/03/19 06:32:37;;;;;;;38.72;15.32;;;;;;;4.64;52.69;98624.16;4971930;28;20378;-72
2023/03/19 06:35:02;;;;;;;30.20;14.93;;;;;;;4.80;53.20;98630.59;4970681;28;20094;-72
2023/03/19 06:37:28;;;;;;;28.92;14.75;;;;;;;4.96;53.28;98631.56;4970970;28;20102;-72
2023/03/19 06:39:53;;;;;;;24.27;13.05;;;;;;;5.08;53.36;98626.81;4971100;28;20030;-72
2023/03/19 06:42:22;;;;;;;25.63;13.07;;;;;;;5.25;52.87;98625.91;4971238;28;20031;-73
2023/03/19 06:44:48;;;;;;;23.33;11.48;;;;;;;5.39;53.31;98629.84;4970794;28;20098;-72
2023/03/19 06:47:14;;;;;;;25.83;12.35;;;;;;;5.54;52.85;98633.78;4970312;28;20093;-72
2023/03/19 06:49:39;;;;;;;25.33;12.00;;;;;;;5.65;53.32;98628.16;4970447;28;20054;-73
2023/03/19 06:52:05;;;;;;;21.40;10.88;;;;;;;5.77;53.13;98627.19;4970546;28;20035;-73
2023/03/19 06:54:31;;;;;;;22.75;10.60;;;;;;;5.88;52.86;98630.78;4970897;28;20034;-72
2023/03/19 06:56:57;;;;;;;19.90;10.50;;;;;;;5.97;53.00;98629.22;4971038;28;20019;-72
2023/03/19 06:59:22;;;;;;;18.42;11.10;;;;;;;6.06;52.55;98632.31;4969332;28;20026;-72
2023/03/19 07:01:47;;;;;;;15.98;9.55;;;;;;;6.15;52.40;98627.19;4970036;28;20031;-72
2023/03/19 07:04:13;;;;;;;17.05;9.70;;;;;;;6.22;52.79;98623.16;4970327;28;20463;-72
2023/03/19 07:06:38;;;;;;;16.83;10.65;;;;;;;6.29;52.29;98627.56;4972190;28;20388;-73
2023/03/19 07:09:04;;;;;;;18.15;11.15;;;;;;;6.36;52.50;98630.84;4973759;28;20081;-72
2023/03/19 07:11:29;;;;;;;19.42;10.23;;;;;;;6.44;52.33;98627.63;4975331;28;20023;-72
2023/03/19 07:13:55;;;;;;;20.08;11.50;;;;;;;6.51;52.66;98630.13;4975120;28;20483;-72
2023/03/19 07:16:20;;;;;;;20.17;12.63;;;;;;;6.56;52.49;98624.66;4975070;28;20484;-72
2023/03/19 07:18:45;;;;;;;18.58;10.32;;;;;;;6.64;52.16;98639.72;4975039;28;20073;-72
2023/03/19 07:21:11;;;;;;;16.98;10.43;;;;;;;6.70;52.52;98625.03;4974052;28;20611;-73
2023/03/19 07:23:36;;;;;;;15.93;8.82;;;;;;;6.77;52.45;98632.94;4974727;28;20023;-72
2023/03/19 07:26:02;;;;;;;14.52;8.82;;;;;;;6.84;52.18;98631.59;4973463;28;20050;-73
2023/03/19 07:28:28;;;;;;;16.70;9.27;;;;;;;6.92;52.21;98635.75;4975086;28;20043;-73
2023/03/19 07:30:53;;;;;;;15.13;9.82;;;;;;;7.01;52.07;98630.56;4974237;28;20038;-72
2023/03/19 07:33:20;;;;;;;18.02;13.02;;;;;;;7.10;51.98;98634.41;4974747;28;20081;-73
2023/03/19 07:35:45;;;;;;;15.93;10.20;;;;;;;7.20;52.21;98627.31;4974649;28;20022;-73
2023/03/19 07:38:11;;;;;;;15.18;9.30;;;;;;;7.29;51.91;98637.47;4974579;28;20483;-73
2023/03/19 07:40:36;;;;;;;16.35;9.07;;;;;;;7.39;51.99;98641.28;4973944;28;20066;-72
2023/03/19 07:43:02;;;;;;;17.52;9.52;;;;;;;7.47;51.88;98635.28;4974498;28;20106;-73
2023/03/19 07:45:28;;;;;;;12.77;8.35;;;;;;;7.61;51.90;98638.28;4974522;28;20027;-72
2023/03/19 07:47:53;;;;;;;16.20;9.60;;;;;;;7.72;51.63;98634.47;4974408;28;20039;-72
2023/03/19 07:50:19;;;;;;;14.15;8.90;;;;;;;7.81;51.25;98628.47;4974301;28;20066;-73
2023/03/19 07:52:48;;;;;;;14.82;9.05;;;;;;;7.92;51.72;98627.38;4974431;28;20022;-73
2023/03/19 07:55:14;;;;;;;13.97;9.87;;;;;;;8.01;51.28;98627.66;4974406;28;20035;-73
2023/03/19 07:57:39;;;;;;;13.60;7.18;;;;;;;8.07;51.09;98626.53;4974671;28;20149;-72
2023/03/19 08:00:05;;;;;;;13.10;7.82;;;;;;;8.14;51.01;98620.78;4985052;28;20129;-73
2023/03/19 08:02:31;;;;;;;14.70;9.60;;;;;;;8.22;50.86;98617.50;4972824;28;20065;-72
2023/03/19 08:04:57;;;;;;;14.07;7.93;;;;;;;8.31;50.67;98624.03;4972839;28;20055;-73
2023/03/19 08:07:22;;;;;;;16.02;9.82;;;;;;;8.40;50.60;98617.97;4982496;28;20030;-73
2023/03/19 08:09:48;;;;;;;18.75;11.85;;;;;;;8.47;50.20;98622.06;4979979;28;20065;-73
2023/03/19 08:12:13;;;;;;;13.02;7.80;;;;;;;8.56;50.76;98622.34;4974459;28;20027;-73
2023/03/19 08:14:39;;;;;;;10.85;7.28;;;;;;;8.68;50.44;98618.47;4973965;28;20035;-73
2023/03/19 08:17:05;;;;;;;13.57;9.27;;;;;;;8.76;50.45;98615.97;4973427;28;20034;-74
2023/03/19 08:19:30;;;;;;;11.20;7.38;;;;;;;8.87;49.92;98622.22;4972988;28;20038;-73
2023/03/19 08:21:56;;;;;;;12.73;8.57;;;;;;;8.96;50.10;98613.41;4972853;28;20035;-74
2023/03/19 08:24:21;;;;;;;9.75;5.57;;;;;;;9.04;49.91;98613.63;4974202;28;20368;-74
2023/03/19 08:26:47;;;;;;;10.10;6.13;;;;;;;9.13;49.80;98613.06;4973838;28;20047;-73
2023/03/19 08:29:13;;;;;;;9.40;6.25;;;;;;;9.23;49.68;98611.06;4974396;28;20035;-73
2023/03/19 08:31:38;;;;;;;9.93;5.82;;;;;;;9.34;49.31;98611.84;4973307;28;20033;-74
2023/03/19 08:34:04;;;;;;;10.27;5.97;;;;;;;9.45;49.07;98612.56;4976306;28;20030;-73
2023/03/19 08:36:30;;;;;;;9.70;6.05;;;;;;;9.57;48.95;98611.41;4973683;28;20031;-73
2023/03/19 08:38:55;;;;;;;10.93;6.65;;;;;;;9.69;48.96;98614.56;4973432;28;20097;-72
2023/03/19 08:41:21;;;;;;;8.55;5.63;;;;;;;9.85;48.74;98617.19;4979859;28;20038;-71
2023/03/19 08:43:47;;;;;;;9.30;6.63;;;;;;;9.99;49.22;98615.38;4972982;28;20106;-71
2023/03/19 08:46:12;;;;;;;10.93;6.68;;;;;;;10.17;48.32;98611.13;4974173;28;20062;-72
2023/03/19 08:48:38;;;;;;;8.25;5.75;;;;;;;10.33;48.18;98610.97;4974051;28;20058;-72
2023/03/19 08:51:03;;;;;;;11.00;6.57;;;;;;;10.39;48.16;98605.16;4973349;28;20126;-72
2023/03/19 08:53:30;;;;;;;12.73;7.88;;;;;;;10.48;47.57;98613.56;4973730;28;20035;-72
2023/03/19 08:56:01;;;;;;;9.80;6.18;;;;;;;10.51;47.50;98609.41;4972865;28;20543;-71
2023/03/19 08:58:27;;;;;;;10.07;6.72;;;;;;;10.56;47.02;98620.31;4973037;28;20488;-72
2023/03/19 09:01:00;;;;;;;10.50;5.85;;;;;;;10.61;47.70;98622.19;4974142;28;20033;-71
2023/03/19 09:03:26;;;;;;;10.68;6.68;;;;;;;10.65;46.25;98621.31;4969732;28;20058;-71
2023/03/19 09:05:51;;;;;;;11.48;7.05;;;;;;;10.70;47.19;98613.03;4975003;28;20054;-71
2023/03/19 09:08:17;;;;;;;10.18;6.28;;;;;;;10.80;47.21;98622.25;4974999;28;20026;-72
2023/03/19 09:10:42;;;;;;;9.85;6.35;;;;;;;10.92;46.91;98621.81;4974204;28;20038;-72
2023/03/19 09:13:08;;;;;;;9.88;7.25;;;;;;;10.99;46.86;98623.09;4977037;28;20034;-74
2023/03/19 09:15:33;;;;;;;10.00;6.82;;;;;;;11.07;46.17;98621.59;4973000;28;20026;-75
2023/03/19 09:17:59;;;;;;;11.50;7.47;;;;;;;11.15;46.48;98625.63;4972013;28;20027;-74
2023/03/19 09:20:25;;;;;;;11.30;7.22;;;;;;;11.23;46.52;98616.72;4972917;28;20069;-73
2023/03/19 09:22:50;;;;;;;10.70;6.57;;;;;;;11.32;45.67;98614.94;4972949;28;20027;-73
2023/03/19 09:25:15;;;;;;;9.57;6.78;;;;;;;11.44;46.63;98616.41;4972699;28;20396;-72
2023/03/19 09:27:41;;;;;;;10.38;6.80;;;;;;;11.58;45.22;98617.31;4983286;28;20045;-76
2023/03/19 09:30:10;;;;;;;10.02;6.75;;;;;;;11.69;45.75;98600.63;4980147;28;20705;-74
2023/03/19 09:32:36;;;;;;;10.97;6.30;;;;;;;11.83;45.78;98604.25;4970610;28;20032;-71
2023/03/19 09:35:01;;;;;;;11.65;7.68;;;;;;;11.96;45.78;98601.84;4970606;28;20038;-72
2023/03/19 09:37:27;;;;;;;9.77;6.32;;;;;;;12.07;44.80;98603.31;4971031;28;20480;-72
2023/03/19 09:39:52;;;;;;;11.30;6.57;;;;;;;12.18;44.83;98604.75;4969890;28;20354;-72
2023/03/19 09:42:50;;;;;;;10.27;6.88;;;;;;;12.23;44.72;98595.59;4972085;28;20049;-70
2023/03/19 09:45:17;;;;;;;10.32;6.57;;;;;;;12.38;44.57;98590.91;4974988;28;20065;-72
2023/03/19 09:47:48;;;;;;;11.52;7.72;;;;;;;12.53;44.73;98590.63;4971033;28;20395;-72
2023/03/19 09:50:16;;;;;;;11.07;6.80;;;;;;;12.65;44.79;98601.13;4970596;28;20041;-73
2023/03/19 09:52:48;;;;;;;9.25;6.53;;;;;;;12.77;44.39;98593.16;4970307;28;20507;-80
2023/03/19 09:55:22;;;;;;;10.63;6.63;;;;;;;12.87;44.32;98594.03;4970266;28;20039;-79
2023/03/19 09:57:49;;;;;;;9.98;7.18;;;;;;;12.92;44.02;98589.25;4984911;28;20384;-73
2023/03/19 10:00:26;;;;;;;11.55;6.88;;;;;;;13.00;43.83;98593.22;4971300;28;20035;-74
2023/03/19 10:03:11;;;;;;;11.30;6.25;;;;;;;13.04;43.45;98585.19;4970529;28;20034;-74
2023/03/19 10:06:05;;;;;;;12.13;7.18;;;;;;;13.05;43.15;98590.34;4970131;28;20064;-74
2023/03/19 10:09:08;;;;;;;10.02;6.43;;;;;;;13.05;43.09;98582.09;4946373;28;20124;-76
2023/03/19 10:12:04;;;;;;;10.95;6.25;;;;;;;13.14;42.98;98581.38;4961202;28;20049;-75
2023/03/19 10:15:00;;;;;;;11.32;6.22;;;;;;;13.24;43.43;98573.69;4969169;28;20058;-74
2023/03/19 10:17:34;;;;;;;10.60;6.93;;;;;;;13.33;42.17;98559.97;4968051;28;20472;-74
2023/03/19 10:20:18;;;;;;;10.32;6.15;;;;;;;13.40;42.14;98571.38;4969807;28;20165;-75
2023/03/19 10:22:50;;;;;;;10.15;6.28;;;;;;;13.48;41.86;98558.00;4971275;28;20058;-78
2023/03/19 10:25:25;;;;;;;9.65;6.38;;;;;;;13.55;42.30;98564.69;4970174;28;20082;-80
2023/03/19 10:27:59;;;;;;;11.90;7.03;;;;;;;13.65;42.54;98563.63;4969977;28;20492;-76
2023/03/19 10:30:25;;;;;;;11.80;8.63;;;;;;;13.68;41.96;98557.47;4973853;28;20430;-75
2023/03/19 10:33:15;;;;;;;11.10;6.57;;;;;;;13.73;41.80;98569.50;4971565;28;20022;-75
2023/03/19 10:35:43;;;;;;;11.88;6.85;;;;;;;13.74;41.78;98562.88;4971114;28;20379;-75
2023/03/19 10:38:22;;;;;;;17.25;10.07;;;;;;;13.68;41.63;98559.44;4972579;28;20046;-75
2023/03/19 10:41:01;;;;;;;11.60;6.95;;;;;;;13.64;41.06;98562.03;4972671;28;20384;-75
2023/03/19 10:43:29;;;;;;;10.33;7.13;;;;;;;13.63;41.48;98543.03;4976286;28;20066;-75
2023/03/19 10:45:57;;;;;;;12.15;7.63;;;;;;;13.62;40.85;98539.47;4976164;28;20031;-75
2023/03/19 10:48:25;;;;;;;11.93;7.30;;;;;;;13.68;41.19;98551.19;4976571;28;20030;-76
2023/03/19 10:50:51;;;;;;;12.55;7.40;;;;;;;13.73;41.35;98542.78;4975001;28;20039;-75
2023/03/19 10:53:16;;;;;;;11.50;6.97;;;;;;;13.79;41.04;98537.94;4974440;28;20479;-75
2023/03/19 10:55:54;;;;;;;11.20;7.05;;;;;;;13.86;41.19;98535.56;4974103;28;20058;-75
2023/03/19 10:58:24;;;;;;;10.30;6.97;;;;;;;13.94;41.03;98545.81;4975986;28;20026;-76
2023/03/19 11:00:55;;;;;;;11.38;7.53;;;;;;;14.01;41.21;98531.56;4975520;28;20031;-76
2023/03/19 11:03:30;;;;;;;12.85;7.95;;;;;;;14.11;40.66;98530.47;4976050;28;20039;-75
2023/03/19 11:06:18;;;;;;;13.10;7.85;;;;;;;14.21;41.12;98519.16;4975880;28;20085;-75
2023/03/19 11:08:59;;;;;;;12.35;7.45;;;;;;;14.30;40.67;98519.19;4976124;28;20046;-75
2023/03/19 11:11:46;;;;;;;12.40;7.72;;;;;;;14.35;40.73;98504.44;4975959;28;20085;-75
2023/03/19 11:14:28;;;;;;;11.30;7.20;;;;;;;14.48;40.67;98503.47;4975301;28;20026;-75
2023/03/19 11:16:57;;;;;;;12.18;7.13;;;;;;;14.62;39.95;98499.78;4976171;28;20037;-75
2023/03/19 11:19:28;;;;;;;11.38;7.28;;;;;;;14.70;40.43;98502.56;4975892;28;20158;-73
2023/03/19 11:22:04;;;;;;;10.95;7.13;;;;;;;14.78;39.80;98492.69;4975545;28;20031;-74
2023/03/19 11:24:36;;;;;;;10.65;6.78;;;;;;;14.86;40.37;98489.13;4975008;28;20054;-73
2023/03/19 11:27:02;;;;;;;12.05;8.07;;;;;;;14.95;39.95;98488.31;4989689;28;20050;-73
2023/03/19 11:29:28;;;;;;;14.75;8.80;;;;;;;15.01;39.25;98487.00;4994595;28;20049;-73